Time;durP1;ratioP1;P1;durP2;ratioP2;P2;SDS_P1;SDS_P2;PMS_P1;PMS_P2;Temp;Humidity;BMP_temperature;BMP_pressure;BME280_temperature;BME280_humidity;BME280_pressure;Samples;Min_cycle;Max_cycle;Signal;HPM_P1;HPM_P2
2024/04/23 01:06:06;;;;;;;1.00;0.80;;;17.90;52.30;;;;;;6568705;21;20328;-89
2024/04/23 01:27:14;;;;;;;1.10;1.00;;;17.90;52.20;;;;;;6556044;21;20290;-84
2024/04/23 03:18:18;;;;;;;1.33;0.90;;;17.70;52.60;;;;;;6561229;21;20280;-87
2024/04/23 04:37:07;;;;;;;1.50;1.20;;;17.60;52.50;;;;;;6608931;21;20271;-88
2024/04/23 05:14:47;;;;;;;1.40;1.27;;;17.70;52.00;;;;;;6556864;21;20872;-84
2024/04/23 05:20:24;;;;;;;1.38;1.05;;;17.60;52.40;;;;;;6520579;21;20287;-84
2024/04/23 05:23:04;;;;;;;1.98;1.08;;;17.60;52.30;;;;;;6484648;21;20248;-84
2024/04/23 05:25:40;;;;;;;1.17;1.08;;;17.60;52.30;;;;;;6459096;22;20337;-84
2024/04/23 05:33:17;;;;;;;1.20;1.00;;;17.60;52.30;;;;;;6547336;21;20260;-83
2024/04/23 05:35:55;;;;;;;1.30;1.15;;;17.70;52.40;;;;;;6311074;22;20291;-84
2024/04/23 05:38:37;;;;;;;1.30;1.20;;;17.60;52.40;;;;;;6232339;22;20218;-83
2024/04/23 05:41:57;;;;;;;1.27;1.02;;;17.60;52.30;;;;;;6303285;22;20250;-85
2024/04/23 05:44:38;;;;;;;1.58;1.10;;;17.60;52.30;;;;;;6263561;22;20235;-85
2024/04/23 05:47:29;;;;;;;1.38;1.20;;;17.60;52.40;;;;;;6186785;22;20227;-85
2024/04/23 05:50:48;;;;;;;1.75;1.05;;;17.60;52.10;;;;;;6141179;23;20221;-85
2024/04/23 05:53:52;;;;;;;1.35;1.08;;;17.60;52.10;;;;;;6255521;23;20264;-84
2024/04/23 05:56:32;;;;;;;1.00;0.90;;;17.60;52.30;;;;;;6208110;23;20255;-84
2024/04/23 05:59:21;;;;;;;1.55;1.10;;;17.60;52.10;;;;;;6044355;23;20313;-84
2024/04/23 06:02:14;;;;;;;1.30;1.10;;;17.70;51.90;;;;;;6041713;23;20219;-84
2024/04/23 06:05:24;;;;;;;1.17;1.08;;;17.70;51.90;;;;;;6079554;23;20192;-83
2024/04/23 06:07:58;;;;;;;1.27;1.17;;;17.70;51.80;;;;;;6131640;23;20226;-83
2024/04/23 06:10:38;;;;;;;1.30;1.20;;;17.70;51.80;;;;;;6170876;23;20217;-83
2024/04/23 06:13:26;;;;;;;1.42;1.05;;;17.70;51.80;;;;;;6080286;23;20270;-84
2024/04/23 06:16:18;;;;;;;1.75;0.90;;;17.80;51.70;;;;;;6115547;23;20306;-84
2024/04/23 06:19:03;;;;;;;1.92;1.30;;;17.70;51.60;;;;;;6079202;23;20268;-84
2024/04/23 06:21:45;;;;;;;1.15;1.00;;;17.70;51.30;;;;;;5958725;24;20223;-86
2024/04/23 06:24:17;;;;;;;1.63;1.00;;;17.90;51.10;;;;;;5912502;24;20227;-86
2024/04/23 06:26:55;;;;;;;1.88;0.93;;;17.80;51.00;;;;;;5983074;23;20234;-84
2024/04/23 06:29:44;;;;;;;0.98;0.90;;;17.90;50.80;;;;;;5888000;24;20273;-84
2024/04/23 06:32:20;;;;;;;1.20;1.10;;;17.90;50.80;;;;;;5968708;24;20228;-84
2024/04/23 06:35:26;;;;;;;0.93;0.90;;;17.90;50.80;;;;;;5987690;23;20225;-84
2024/04/23 06:38:12;;;;;;;1.83;1.20;;;17.90;50.80;;;;;;5992980;23;20268;-83
2024/04/23 06:40:54;;;;;;;1.63;1.10;;;18.00;50.80;;;;;;5988430;23;20234;-84
2024/04/23 06:43:21;;;;;;;1.30;1.00;;;18.00;50.10;;;;;;6016045;23;20231;-84
2024/04/23 06:45:57;;;;;;;1.95;1.23;;;17.90;50.50;;;;;;6017418;23;20219;-83
2024/04/23 06:48:35;;;;;;;2.00;1.35;;;18.00;50.20;;;;;;6023458;23;20296;-84
2024/04/23 06:51:07;;;;;;;1.88;1.20;;;18.00;50.20;;;;;;6014947;23;20227;-85
2024/04/23 06:53:43;;;;;;;1.33;1.20;;;18.00;50.40;;;;;;6038803;23;20237;-84
2024/04/23 06:56:09;;;;;;;1.27;1.17;;;18.00;49.90;;;;;;6047883;23;20688;-86
2024/04/23 06:59:15;;;;;;;1.33;1.08;;;18.00;50.20;;;;;;5987106;23;20238;-85
2024/04/23 07:01:53;;;;;;;1.25;1.15;;;18.00;50.50;;;;;;6021687;23;20272;-85
2024/04/23 07:04:21;;;;;;;1.67;1.00;;;17.90;50.70;;;;;;6100810;23;20256;-86
2024/04/23 07:06:53;;;;;;;1.30;1.10;;;18.00;50.40;;;;;;6102620;23;20736;-85
2024/04/23 07:09:27;;;;;;;1.20;1.10;;;18.10;50.40;;;;;;6176563;22;20229;-86
2024/04/23 07:11:56;;;;;;;1.52;1.20;;;18.10;50.10;;;;;;6153803;23;20738;-85
2024/04/23 07:14:35;;;;;;;;;;;;;;;;;;;;;
2024/04/23 07:17:17;;;;;;;1.50;1.00;;;18.20;50.00;;;;;;6061978;23;20241;-86
2024/04/23 07:19:51;;;;;;;1.02;0.93;;;18.10;50.20;;;;;;6063205;23;20287;-85
2024/04/23 07:22:17;;;;;;;1.05;0.95;;;18.00;50.70;;;;;;6060239;23;20266;-85
2024/04/23 07:24:49;;;;;;;1.77;1.23;;;18.10;49.70;;;;;;5977558;23;20230;-83
2024/04/23 07:27:29;;;;;;;0.77;0.77;;;18.20;49.80;;;;;;6026816;23;20236;-85
2024/04/23 07:30:04;;;;;;;1.45;0.98;;;18.20;50.00;;;;;;6099408;23;20300;-84
2024/04/23 07:32:33;;;;;;;1.30;1.20;;;18.20;49.90;;;;;;6113264;23;20265;-85
2024/04/23 07:35:45;;;;;;;2.15;0.90;;;18.20;49.50;;;;;;6109894;23;20232;-85
2024/04/23 07:38:36;;;;;;;2.45;1.10;;;18.30;49.60;;;;;;6073026;23;20235;-84
2024/04/23 07:41:16;;;;;;;1.15;0.90;;;18.20;49.90;;;;;;6105963;23;20224;-85
2024/04/23 07:43:45;;;;;;;1.45;1.23;;;18.30;49.70;;;;;;6098354;23;20261;-85
2024/04/23 07:46:18;;;;;;;1.48;1.10;;;18.30;49.40;;;;;;6103709;23;20227;-84
2024/04/23 07:49:16;;;;;;;0.90;0.90;;;18.20;50.30;;;;;;6180370;22;20243;-85
2024/04/23 07:51:42;;;;;;;1.45;0.90;;;18.20;49.80;;;;;;6159112;23;20267;-86
2024/04/23 07:54:17;;;;;;;1.58;1.23;;;18.20;49.90;;;;;;6176060;23;20538;-86
2024/04/23 07:56:44;;;;;;;1.33;1.08;;;18.10;50.50;;;;;;6253191;22;20231;-85
2024/04/23 07:59:12;;;;;;;1.70;0.93;;;18.20;50.00;;;;;;6294371;22;20231;-85
2024/04/23 08:01:40;;;;;;;1.35;1.00;;;18.10;50.30;;;;;;6293446;22;20231;-87
2024/04/23 08:04:14;;;;;;;1.58;0.90;;;18.30;49.70;;;;;;6297207;22;20227;-86
2024/04/23 08:06:44;;;;;;;1.08;0.98;;;18.30;49.80;;;;;;6236867;22;20227;-83
2024/04/23 08:09:19;;;;;;;1.27;0.93;;;18.30;49.80;;;;;;6169767;23;20228;-84
2024/04/23 08:12:02;;;;;;;1.05;0.98;;;18.40;49.60;;;;;;6208564;23;20280;-85
2024/04/23 08:14:39;;;;;;;1.55;1.10;;;18.40;49.20;;;;;;6207263;23;20235;-86
2024/04/23 08:17:07;;;;;;;2.00;0.98;;;18.50;49.40;;;;;;6207589;23;20236;-85
2024/04/23 08:19:39;;;;;;;1.52;1.20;;;18.40;49.40;;;;;;6161111;23;20358;-85
2024/04/23 08:22:39;;;;;;;1.27;1.10;;;18.50;49.40;;;;;;6151801;22;20296;-86
2024/04/23 08:25:09;;;;;;;1.55;1.05;;;18.50;49.20;;;;;;6294701;22;20270;-85
2024/04/23 08:27:40;;;;;;;1.10;0.90;;;18.50;49.10;;;;;;6252624;22;20331;-87
2024/04/23 08:30:19;;;;;;;1.10;1.00;;;18.50;48.90;;;;;;6252353;22;20287;-88
2024/04/23 08:32:46;;;;;;;1.30;1.20;;;18.60;49.20;;;;;;6221138;22;20273;-86
2024/04/23 08:35:17;;;;;;;1.20;1.10;;;18.60;49.20;;;;;;6234672;22;20224;-85
2024/04/23 08:37:50;;;;;;;1.63;1.08;;;18.60;48.90;;;;;;6252611;22;20235;-86
2024/04/23 08:40:20;;;;;;;1.27;0.93;;;18.60;48.90;;;;;;6252814;22;20235;-86
2024/04/23 08:42:47;;;;;;;1.02;0.90;;;18.60;49.20;;;;;;6177972;22;20228;-85
2024/04/23 08:45:30;;;;;;;1.63;1.00;;;18.70;48.70;;;;;;6172802;22;20240;-85
2024/04/23 08:48:06;;;;;;;2.28;1.10;;;18.70;48.70;;;;;;6176713;22;20268;-84
2024/04/23 08:50:41;;;;;;;1.25;1.02;;;18.70;48.60;;;;;;6214452;22;20287;-83
2024/04/23 08:53:20;;;;;;;1.50;0.93;;;18.70;48.20;;;;;;6125013;23;20228;-84
2024/04/23 08:56:05;;;;;;;1.52;1.13;;;18.70;48.30;;;;;;6196027;23;20238;-85
2024/04/23 08:58:44;;;;;;;0.80;0.80;;;18.70;48.30;;;;;;6115578;23;20261;-85
2024/04/23 09:01:17;;;;;;;2.95;1.20;;;18.70;48.80;;;;;;6103822;23;20279;-85
2024/04/23 09:03:49;;;;;;;2.33;1.15;;;18.60;48.90;;;;;;6031533;23;20258;-85
2024/04/23 09:06:35;;;;;;;0.90;0.90;;;18.70;48.90;;;;;;6058385;23;20288;-85
2024/04/23 09:09:08;;;;;;;3.65;0.90;;;18.70;49.20;;;;;;6079641;23;20274;-88
2024/04/23 09:11:38;;;;;;;3.05;1.00;;;18.70;49.10;;;;;;6064830;23;20227;-86
2024/04/23 09:14:22;;;;;;;;;;;;;;;;;;;;;
2024/04/23 09:16:56;;;;;;;1.00;0.90;;;18.70;49.00;;;;;;6064724;23;20239;-84
2024/04/23 09:19:31;;;;;;;8.80;1.52;;;18.70;49.00;;;;;;6056944;23;20249;-85
2024/04/23 09:22:30;;;;;;;;;;;;;;;;;;;;;
2024/04/23 09:25:12;;;;;;;1.40;0.90;;;18.70;48.80;;;;;;6014542;23;20240;-87
2024/04/23 09:28:05;;;;;;;1.42;1.02;;;18.70;49.10;;;;;;6062284;23;20232;-85
2024/04/23 09:30:55;;;;;;;3.00;1.10;;;18.60;49.00;;;;;;6076229;23;20219;-87
2024/04/23 09:33:33;;;;;;;0.98;0.88;;;18.70;49.10;;;;;;6042334;23;20236;-85
2024/04/23 09:36:10;;;;;;;0.85;0.82;;;18.70;49.30;;;;;;6066952;23;20221;-84
2024/04/23 09:38:46;;;;;;;1.10;1.00;;;18.70;48.80;;;;;;6121504;23;20221;-85
2024/04/23 09:41:14;;;;;;;1.00;0.90;;;18.80;48.70;;;;;;6116250;23;20234;-85
2024/04/23 09:43:57;;;;;;;2.47;1.10;;;18.90;48.40;;;;;;6117527;23;20272;-84
2024/04/23 09:46:32;;;;;;;0.95;0.80;;;18.80;48.50;;;;;;6141020;23;20220;-85
2024/04/23 09:49:07;;;;;;;4.30;1.00;;;18.80;48.60;;;;;;6211434;22;20261;-86
2024/04/23 09:51:42;;;;;;;1.27;0.85;;;18.80;48.80;;;;;;6203904;23;20232;-86
2024/04/23 09:54:30;;;;;;;2.20;0.93;;;18.80;48.80;;;;;;6147330;23;20282;-86
2024/04/23 09:57:21;;;;;;;1.00;0.80;;;18.80;48.40;;;;;;6098289;23;20223;-85
2024/04/23 10:00:26;;;;;;;0.80;0.80;;;18.80;48.60;;;;;;6043982;23;20582;-84
2024/04/23 10:03:13;;;;;;;2.03;0.98;;;18.80;48.60;;;;;;6069782;23;20278;-85
2024/04/23 10:05:48;;;;;;;1.60;0.93;;;18.80;48.60;;;;;;6064085;23;20228;-84
2024/04/23 10:08:19;;;;;;;1.63;0.90;;;18.80;49.10;;;;;;6028879;23;20235;-85
2024/04/23 10:10:49;;;;;;;1.05;0.95;;;18.70;49.30;;;;;;6027210;23;20224;-87
2024/04/23 10:13:21;;;;;;;1.00;0.90;;;18.60;49.40;;;;;;6020755;23;20239;-85
2024/04/23 10:15:56;;;;;;;1.10;1.00;;;18.60;48.70;;;;;;6006010;23;20236;-85
2024/04/23 10:18:37;;;;;;;1.80;0.90;;;18.60;48.80;;;;;;6013996;23;20240;-85
2024/04/23 10:21:08;;;;;;;1.25;1.00;;;18.70;49.30;;;;;;5978612;23;20326;-85
2024/04/23 10:23:36;;;;;;;1.70;0.80;;;18.60;49.10;;;;;;6058574;23;20238;-85
2024/04/23 10:26:02;;;;;;;1.20;0.80;;;18.60;48.50;;;;;;6144907;23;20346;-86
2024/04/23 10:28:28;;;;;;;0.90;0.90;;;18.50;48.50;;;;;;6252233;22;20233;-85
2024/04/23 10:31:27;;;;;;;2.20;0.80;;;18.60;48.70;;;;;;6300834;22;20229;-85
2024/04/23 10:33:54;;;;;;;1.00;0.80;;;18.60;48.90;;;;;;6319884;22;20236;-86
2024/04/23 10:36:22;;;;;;;0.85;0.82;;;18.60;49.00;;;;;;6335526;22;20709;-85
2024/04/23 10:38:58;;;;;;;2.13;1.00;;;18.60;48.00;;;;;;6449578;22;20689;-85
2024/04/23 10:41:29;;;;;;;0.80;0.80;;;18.60;48.10;;;;;;6367327;22;20677;-85
2024/04/23 10:44:02;;;;;;;1.10;0.80;;;18.70;48.70;;;;;;6405364;22;20218;-85
2024/04/23 10:46:32;;;;;;;0.90;0.80;;;18.70;48.00;;;;;;6405696;22;20245;-84
2024/04/23 10:49:00;;;;;;;1.05;0.80;;;18.70;48.40;;;;;;6449932;22;20218;-84
2024/04/23 10:51:26;;;;;;;1.05;0.70;;;18.60;49.00;;;;;;6452554;22;20218;-85
2024/04/23 10:53:56;;;;;;;0.88;0.88;;;18.60;48.90;;;;;;6494674;22;20305;-84
2024/04/23 10:56:24;;;;;;;1.00;0.80;;;18.60;48.90;;;;;;6367372;22;20312;-85
2024/04/23 10:59:10;;;;;;;0.93;0.80;;;18.60;48.50;;;;;;6494141;22;20221;-85
2024/04/23 11:01:51;;;;;;;2.58;0.82;;;18.60;49.10;;;;;;6451729;22;20219;-84
2024/04/23 11:04:18;;;;;;;2.28;0.90;;;18.60;48.80;;;;;;6448021;22;20285;-86
2024/04/23 11:06:50;;;;;;;2.65;0.82;;;18.60;49.30;;;;;;6448841;22;20222;-84
2024/04/23 11:09:21;;;;;;;5.40;1.20;;;18.60;48.60;;;;;;6496194;22;20256;-84
2024/04/23 11:11:50;;;;;;;3.28;0.95;;;18.70;48.90;;;;;;6535694;22;20234;-86
2024/04/23 11:14:27;;;;;;;1.17;1.00;;;18.60;48.10;;;;;;6489905;22;20320;-84
2024/04/23 11:17:01;;;;;;;3.60;1.05;;;18.60;48.90;;;;;;6451443;22;20229;-85
2024/04/23 11:19:38;;;;;;;1.55;1.08;;;18.60;48.60;;;;;;6447998;22;20248;-86
2024/04/23 11:22:11;;;;;;;2.13;0.93;;;18.60;49.00;;;;;;6449232;22;20277;-85
2024/04/23 11:24:51;;;;;;;1.33;0.70;;;18.60;49.00;;;;;;6491964;22;20214;-85
2024/04/23 11:27:19;;;;;;;2.40;1.00;;;18.60;48.80;;;;;;6448727;22;20260;-85
2024/04/23 11:29:59;;;;;;;1.65;0.60;;;18.60;49.00;;;;;;6444432;22;20261;-85
2024/04/23 11:32:31;;;;;;;1.98;0.80;;;18.60;49.00;;;;;;6450680;22;20261;-86
2024/04/23 11:35:17;;;;;;;3.08;1.00;;;18.60;49.20;;;;;;6452157;22;20230;-86
2024/04/23 11:38:15;;;;;;;1.10;1.00;;;18.60;49.10;;;;;;6443527;22;20667;-87
2024/04/23 11:40:47;;;;;;;2.03;0.90;;;18.60;49.30;;;;;;6366939;22;20249;-86
2024/04/23 11:43:43;;;;;;;2.30;0.80;;;18.60;48.50;;;;;;6389260;22;20361;-86
2024/04/23 11:46:59;;;;;;;;;;;;;;;;;;;;;
2024/04/23 11:49:45;;;;;;;1.35;0.85;;;18.60;48.70;;;;;;6096718;23;20224;-86
2024/04/23 11:52:12;;;;;;;4.80;1.05;;;18.60;48.40;;;;;;6032581;23;20254;-85
2024/04/23 11:54:47;;;;;;;1.88;0.70;;;18.60;49.20;;;;;;6063951;23;20227;-86
2024/04/23 11:57:31;;;;;;;2.05;0.65;;;18.60;48.30;;;;;;5892436;24;20235;-86
2024/04/23 12:00:11;;;;;;;1.38;0.90;;;18.60;47.40;;;;;;5920697;24;20236;-86
2024/04/23 12:03:45;;;;;;;1.30;0.80;;;18.60;48.00;;;;;;5816325;24;20276;-86
2024/04/23 12:07:08;;;;;;;;;;;;;;;;;;;;;
2024/04/23 12:09:48;;;;;;;2.35;0.82;;;18.60;48.60;;;;;;5828683;24;20272;-87
2024/04/23 12:12:34;;;;;;;;;;;;;;;;;;;;;
2024/04/23 12:15:18;;;;;;;0.70;0.70;;;18.60;48.40;;;;;;5912311;24;20317;-86
2024/04/23 12:21:34;;;;;;;1.88;0.90;;;18.60;48.10;;;;;;5991305;23;20232;-86
2024/04/23 12:24:19;;;;;;;1.10;1.00;;;18.60;48.90;;;;;;6056857;23;20232;-86
2024/04/23 12:27:18;;;;;;;1.00;0.80;;;18.60;48.70;;;;;;6100557;23;20307;-86
2024/04/23 12:30:07;;;;;;;0.70;0.70;;;18.60;48.50;;;;;;5943412;23;20234;-86
2024/04/23 12:33:01;;;;;;;;;;;;;;;;;;;;;
2024/04/23 12:38:51;;;;;;;0.98;0.88;;;18.50;48.40;;;;;;5923114;24;20298;-87
2024/04/23 12:41:31;;;;;;;;;;;;;;;;;;;;;
2024/04/23 12:44:20;;;;;;;1.70;0.90;;;18.60;48.30;;;;;;5840800;24;20230;-86
2024/04/23 12:47:13;;;;;;;0.75;0.75;;;18.60;48.40;;;;;;5862731;24;20243;-86
2024/04/23 12:49:50;;;;;;;0.70;0.70;;;18.60;48.40;;;;;;5891375;24;20236;-87
2024/04/23 12:52:27;;;;;;;0.88;0.77;;;18.60;48.00;;;;;;5888728;24;20299;-86
2024/04/23 12:55:29;;;;;;;;;;;;;;;;;;;;;
2024/04/23 12:58:26;;;;;;;0.63;0.63;;;18.60;47.20;;;;;;6090674;23;20237;-86
2024/04/23 13:00:59;;;;;;;2.28;0.90;;;18.70;46.80;;;;;;6184593;23;20273;-86
2024/04/23 13:03:43;;;;;;;0.70;0.70;;;18.70;47.70;;;;;;6147524;23;20225;-85
2024/04/23 13:06:31;;;;;;;;;;;;;;;;;;;;;
2024/04/23 13:12:44;;;;;;;0.80;0.80;;;18.70;47.20;;;;;;6144580;23;20249;-87
2024/04/23 13:15:22;;;;;;;;;;;;;;;;;;;;;
2024/04/23 13:18:50;;;;;;;0.70;0.70;;;18.70;46.90;;;;;;5994887;23;20230;-87
2024/04/23 13:21:29;;;;;;;1.35;1.00;;;18.70;47.70;;;;;;5937036;24;20269;-85
2024/04/23 13:23:57;;;;;;;0.70;0.70;;;18.70;47.40;;;;;;5899131;24;20265;-84
2024/04/23 13:26:30;;;;;;;0.80;0.80;;;18.70;47.60;;;;;;5816828;24;20259;-84
2024/04/23 13:29:12;;;;;;;;;;;;;;;;;;;;;
2024/04/23 13:31:40;;;;;;;1.23;0.82;;;18.70;47.40;;;;;;5890294;24;20236;-84
2024/04/23 13:34:09;;;;;;;0.70;0.70;;;18.70;46.60;;;;;;5902007;24;20281;-84
2024/04/23 13:36:39;;;;;;;1.27;0.70;;;18.80;46.90;;;;;;5929553;24;20240;-85
2024/04/23 13:39:05;;;;;;;1.38;0.90;;;18.80;47.40;;;;;;5927439;24;20355;-84
2024/04/23 13:41:33;;;;;;;1.23;0.90;;;18.80;47.70;;;;;;5926510;24;20240;-83
2024/04/23 13:44:03;;;;;;;0.70;0.70;;;18.80;46.70;;;;;;5927900;24;20236;-85
2024/04/23 13:46:29;;;;;;;0.82;0.80;;;18.70;46.40;;;;;;5878638;24;20230;-85
2024/04/23 13:48:56;;;;;;;1.55;0.80;;;18.80;46.70;;;;;;5904078;23;20318;-84
2024/04/23 13:51:23;;;;;;;1.13;0.80;;;18.80;46.80;;;;;;6013223;23;20268;-84
2024/04/23 13:53:55;;;;;;;0.98;0.80;;;18.80;46.20;;;;;;6132394;23;20248;-84
2024/04/23 13:56:30;;;;;;;0.50;0.50;;;18.80;46.40;;;;;;6116709;23;20230;-84
2024/04/23 13:58:56;;;;;;;1.00;0.70;;;18.80;46.20;;;;;;6156614;23;20225;-84
2024/04/23 14:01:25;;;;;;;0.68;0.68;;;18.80;46.90;;;;;;6156075;22;20253;-84
2024/04/23 14:04:06;;;;;;;1.02;0.70;;;18.80;46.90;;;;;;6207333;22;20227;-84
2024/04/23 14:06:33;;;;;;;0.63;0.63;;;18.80;46.80;;;;;;6237881;23;20248;-83
2024/04/23 14:08:59;;;;;;;0.55;0.55;;;18.80;46.20;;;;;;6111655;23;20229;-84
2024/04/23 14:11:27;;;;;;;1.02;0.90;;;18.90;46.40;;;;;;6151067;23;20221;-84
2024/04/23 14:13:55;;;;;;;0.70;0.70;;;18.80;46.60;;;;;;6115623;23;20260;-85
2024/04/23 14:16:30;;;;;;;0.98;0.73;;;18.80;46.20;;;;;;6152692;23;20671;-85
2024/04/23 14:19:48;;;;;;;0.80;0.77;;;18.80;46.20;;;;;;6164141;23;20224;-85
2024/04/23 14:22:07;;;;;;;0.80;0.80;;;18.80;46.70;;;;;;6197110;23;20232;-84
2024/04/23 14:25:12;;;;;;;;;;;;;;;;;;;;;
2024/04/23 14:30:46;;;;;;;0.70;0.70;;;18.80;46.30;;;;;;6088537;23;20233;-85
2024/04/23 14:33:24;;;;;;;1.15;0.85;;;18.80;45.80;;;;;;6050727;23;20288;-84
2024/04/23 14:36:17;;;;;;;0.80;0.80;;;18.80;46.00;;;;;;6006938;23;20312;-83
2024/04/23 14:38:51;;;;;;;0.70;0.70;;;18.80;46.60;;;;;;6016044;23;20233;-84
2024/04/23 14:42:27;;;;;;;0.63;0.63;;;18.80;46.30;;;;;;6014459;23;20365;-85
2024/04/23 14:44:56;;;;;;;1.52;0.70;;;18.80;46.20;;;;;;6061672;23;20236;-83
2024/04/23 14:47:57;;;;;;;;;;;;;;;;;;;;;
2024/04/23 14:50:28;;;;;;;0.70;0.70;;;18.90;46.00;;;;;;5891562;23;20238;-84
2024/04/23 14:52:59;;;;;;;0.77;0.77;;;18.90;45.70;;;;;;6012788;23;20285;-84
2024/04/23 14:55:32;;;;;;;1.85;0.60;;;18.90;46.90;;;;;;6012800;23;20233;-85
2024/04/23 14:58:07;;;;;;;1.80;0.85;;;18.90;45.60;;;;;;5993023;23;20235;-85
2024/04/23 15:00:55;;;;;;;;;;;;;;;;;;;;;
2024/04/23 15:03:47;;;;;;;2.83;0.73;;;19.00;46.20;;;;;;5925772;24;20232;-85
2024/04/23 15:07:00;;;;;;;1.63;0.95;;;18.90;46.40;;;;;;5940691;23;20269;-85
2024/04/23 15:13:00;;;;;;;1.63;0.57;;;18.90;45.70;;;;;;5926889;24;20277;-85
2024/04/23 15:15:30;;;;;;;0.85;0.75;;;19.00;45.40;;;;;;5961869;23;20444;-86
2024/04/23 15:18:20;;;;;;;0.70;0.70;;;19.00;45.90;;;;;;5976029;23;20231;-84
2024/04/23 15:21:14;;;;;;;0.80;0.80;;;19.00;45.70;;;;;;6066954;23;20355;-84
2024/04/23 15:23:42;;;;;;;1.75;0.80;;;19.00;45.80;;;;;;6056409;23;20359;-84
2024/04/23 15:26:13;;;;;;;0.77;0.75;;;18.90;46.10;;;;;;5931462;24;20230;-84
2024/04/23 15:28:39;;;;;;;1.00;0.90;;;19.00;45.10;;;;;;5964109;24;20363;-85
2024/04/23 15:31:13;;;;;;;1.15;1.00;;;18.90;46.00;;;;;;5967695;24;20234;-84
2024/04/23 15:34:06;;;;;;;2.40;0.60;;;19.00;46.00;;;;;;5946262;24;20251;-84
2024/04/23 15:37:28;;;;;;;0.65;0.60;;;18.80;46.40;;;;;;5970772;24;20297;-87
2024/04/23 15:40:49;;;;;;;;;;;;;;;;;;;;;
2024/04/23 17:50:06;;;;;;;5.00;1.00;;;19.20;46.00;;;;;;6244976;23;20232;-87
2024/04/23 17:53:08;;;;;;;2.70;1.20;;;19.20;46.40;;;;;;6063333;23;20266;-87
2024/04/23 17:55:38;;;;;;;3.50;1.00;;;19.20;47.20;;;;;;6020067;23;20236;-86
2024/04/23 17:58:16;;;;;;;5.40;1.00;;;19.20;47.40;;;;;;6020479;23;20228;-84
2024/04/23 18:00:51;;;;;;;4.90;0.90;;;19.20;46.40;;;;;;6025886;23;20303;-85
2024/04/23 18:07:28;;;;;;;1.17;0.70;;;19.20;47.60;;;;;;5970869;23;20262;-87
2024/04/23 18:10:01;;;;;;;6.78;1.20;;;19.10;46.70;;;;;;5935630;24;20231;-87
2024/04/23 18:12:41;;;;;;;;;;;;;;;;;;;;;
2024/04/23 18:15:24;;;;;;;3.40;1.20;;;19.20;47.10;;;;;;5921260;24;20227;-85
2024/04/23 18:17:57;;;;;;;3.05;0.80;;;19.20;47.10;;;;;;5803409;24;20243;-84
2024/04/23 18:20:27;;;;;;;5.13;0.90;;;19.20;47.50;;;;;;5888362;24;20305;-85
2024/04/23 18:23:14;;;;;;;3.65;1.00;;;19.10;47.90;;;;;;5855121;24;20233;-86
2024/04/23 18:26:02;;;;;;;;;;;;;;;;;;;;;
2024/04/23 18:28:39;;;;;;;4.28;1.10;;;19.10;47.90;;;;;;5977814;23;20261;-86
2024/04/23 18:31:13;;;;;;;1.75;0.90;;;19.10;47.30;;;;;;6016658;23;20261;-87
2024/04/23 18:33:43;;;;;;;5.07;0.98;;;19.20;47.30;;;;;;6052519;23;20269;-86
2024/04/23 18:36:11;;;;;;;4.40;0.93;;;19.20;48.10;;;;;;6015168;23;20229;-87
2024/04/23 18:38:38;;;;;;;2.63;0.90;;;19.10;48.00;;;;;;6053901;23;20226;-86
2024/04/23 18:41:07;;;;;;;3.45;0.88;;;19.10;48.20;;;;;;6080412;23;20233;-86
2024/04/23 18:43:43;;;;;;;3.03;1.05;;;19.10;48.20;;;;;;6255048;22;20560;-86
2024/04/23 18:46:49;;;;;;;2.65;1.00;;;19.10;47.90;;;;;;6341663;22;20274;-85
2024/04/23 18:49:24;;;;;;;6.53;1.30;;;19.10;47.10;;;;;;6254756;22;20248;-85
2024/04/23 18:51:59;;;;;;;2.38;1.00;;;19.10;48.00;;;;;;6303274;22;20234;-85
2024/04/23 18:54:33;;;;;;;0.82;0.80;;;19.00;47.80;;;;;;6297565;22;20309;-85
2024/04/23 18:56:59;;;;;;;3.28;0.90;;;19.10;48.20;;;;;;6244231;23;20403;-84
2024/04/23 18:59:32;;;;;;;4.70;1.08;;;19.00;48.10;;;;;;6241481;23;20225;-86
2024/04/23 19:02:41;;;;;;;2.17;0.93;;;19.00;48.20;;;;;;6236630;23;20275;-84
2024/04/23 19:05:31;;;;;;;2.85;1.10;;;19.00;48.00;;;;;;6075210;23;20286;-86
2024/04/23 19:08:07;;;;;;;2.28;0.88;;;19.00;48.30;;;;;;6060290;23;20229;-85
2024/04/23 19:10:37;;;;;;;5.93;1.48;;;19.00;48.70;;;;;;6005336;23;20235;-84
2024/04/23 19:13:09;;;;;;;3.75;1.00;;;19.00;47.90;;;;;;6033694;23;20438;-84
2024/04/23 19:16:03;;;;;;;4.30;0.90;;;19.00;48.20;;;;;;6031128;23;20278;-84
2024/04/23 19:18:57;;;;;;;1.73;0.93;;;19.00;48.80;;;;;;6158871;23;20226;-83
2024/04/23 19:21:26;;;;;;;3.65;1.30;;;18.90;48.90;;;;;;6191783;23;20338;-84
2024/04/23 19:24:00;;;;;;;3.33;1.05;;;18.90;48.30;;;;;;6160191;23;20251;-84
2024/04/23 19:26:37;;;;;;;4.90;1.15;;;18.90;48.50;;;;;;6200756;22;20223;-84
2024/04/23 19:29:18;;;;;;;2.45;1.00;;;18.90;48.70;;;;;;6257624;22;20286;-83
2024/04/23 19:31:48;;;;;;;3.22;0.90;;;18.90;48.80;;;;;;6302555;22;20272;-84
2024/04/23 19:34:16;;;;;;;1.00;0.90;;;18.90;49.00;;;;;;6257428;22;20325;-84
2024/04/23 19:36:47;;;;;;;2.88;1.05;;;18.90;48.50;;;;;;6298625;22;20226;-84
2024/04/23 19:39:14;;;;;;;1.60;1.05;;;18.90;48.70;;;;;;6323877;22;20223;-84
2024/04/23 19:41:40;;;;;;;3.72;1.10;;;18.90;49.00;;;;;;6403441;22;20263;-84
2024/04/23 19:44:06;;;;;;;1.25;0.68;;;18.80;48.80;;;;;;6403028;22;20227;-84
2024/04/23 19:46:38;;;;;;;1.23;0.90;;;18.80;48.90;;;;;;6402510;22;20235;-84
2024/04/23 19:49:07;;;;;;;3.33;1.17;;;18.80;49.00;;;;;;6405317;22;20227;-83
2024/04/23 19:51:32;;;;;;;2.55;0.90;;;18.80;48.80;;;;;;6445152;22;20244;-86
2024/04/23 19:53:58;;;;;;;2.83;0.93;;;18.80;48.60;;;;;;6403490;22;20570;-84
2024/04/23 19:58:53;;;;;;;2.85;0.90;;;18.70;48.90;;;;;;6403436;22;20227;-83
2024/04/23 19:59:19;;;;;;;1.10;1.00;;;18.80;49.10;;;;;;6417996;22;20215;-83
2024/04/23 20:01:47;;;;;;;2.75;0.95;;;18.80;49.10;;;;;;6404959;22;20590;-84
2024/04/23 20:04:19;;;;;;;2.00;0.77;;;18.70;49.20;;;;;;6436474;21;20232;-83
2024/04/23 20:06:48;;;;;;;2.03;1.17;;;18.70;49.10;;;;;;6507108;21;20252;-83
2024/04/23 20:09:20;;;;;;;1.50;1.00;;;18.70;49.30;;;;;;6464495;21;20265;-85
2024/04/23 20:11:52;;;;;;;4.45;1.02;;;18.70;49.40;;;;;;6464570;21;20217;-85
2024/04/23 20:14:19;;;;;;;4.68;0.98;;;18.70;49.50;;;;;;6381227;21;20225;-84
2024/04/23 20:16:46;;;;;;;0.80;0.80;;;18.70;49.60;;;;;;6464539;21;20252;-85
2024/04/23 20:19:13;;;;;;;2.20;1.00;;;18.70;49.60;;;;;;6465835;21;20225;-85
2024/04/23 20:21:45;;;;;;;1.08;0.85;;;18.70;49.40;;;;;;6465778;21;20315;-85
2024/04/23 20:24:13;;;;;;;1.85;1.00;;;18.70;49.70;;;;;;6381370;21;20216;-83
2024/04/23 20:26:40;;;;;;;3.33;1.27;;;18.70;49.50;;;;;;6465770;21;20221;-84
2024/04/23 20:29:11;;;;;;;2.55;1.00;;;18.70;49.50;;;;;;6507656;21;20579;-84
2024/04/23 20:31:45;;;;;;;2.58;0.93;;;18.70;49.50;;;;;;6507521;21;20221;-84
2024/04/23 20:34:11;;;;;;;2.72;1.13;;;18.60;49.40;;;;;;6507261;21;20259;-85
2024/04/23 20:36:37;;;;;;;1.92;1.00;;;18.60;49.40;;;;;;6465043;21;20270;-84
2024/04/23 20:39:02;;;;;;;2.85;1.20;;;18.60;49.40;;;;;;6463155;21;20596;-84
2024/04/23 20:41:32;;;;;;;2.67;1.42;;;18.70;49.50;;;;;;6463368;21;20225;-85
2024/04/23 20:43:59;;;;;;;1.65;1.08;;;18.60;49.50;;;;;;6505016;21;20232;-84
2024/04/23 20:46:37;;;;;;;0.93;0.88;;;18.60;49.30;;;;;;6453761;22;20265;-86
2024/04/23 20:49:04;;;;;;;1.52;0.95;;;18.70;49.30;;;;;;6496890;22;20282;-86
2024/04/23 20:51:35;;;;;;;3.80;1.08;;;18.70;49.30;;;;;;6454127;22;20261;-84
2024/04/23 20:54:29;;;;;;;1.63;1.17;;;18.70;49.10;;;;;;6496650;22;20250;-84
2024/04/23 20:57:02;;;;;;;1.63;0.88;;;18.70;49.10;;;;;;6496768;22;20285;-85
2024/04/23 20:59:31;;;;;;;2.72;1.00;;;18.70;49.10;;;;;;6540352;22;20214;-85
2024/04/23 21:01:58;;;;;;;1.88;1.10;;;18.60;49.80;;;;;;6496916;22;20213;-84
2024/04/23 21:04:24;;;;;;;2.38;1.00;;;18.60;49.10;;;;;;6454257;22;20261;-84
2024/04/23 21:06:53;;;;;;;1.38;0.93;;;18.60;49.10;;;;;;6413477;22;20218;-85
2024/04/23 21:09:21;;;;;;;2.80;1.05;;;18.60;48.90;;;;;;6454843;22;20229;-85
2024/04/23 21:11:50;;;;;;;3.55;1.17;;;18.60;49.00;;;;;;6454401;22;20303;-84
2024/04/23 21:14:19;;;;;;;1.40;0.95;;;18.60;49.00;;;;;;6412664;22;20277;-85
2024/04/23 21:16:49;;;;;;;1.60;0.85;;;18.60;49.00;;;;;;6454775;22;20285;-84
2024/04/23 21:19:19;;;;;;;2.65;1.00;;;18.60;49.10;;;;;;6496477;22;20226;-84
2024/04/23 21:21:45;;;;;;;2.95;1.17;;;18.60;49.80;;;;;;6496853;22;20252;-84
2024/04/23 21:24:16;;;;;;;2.85;1.10;;;18.60;49.10;;;;;;6496569;22;20285;-84
2024/04/23 21:26:51;;;;;;;2.45;1.13;;;18.60;49.10;;;;;;6539971;22;20218;-85
2024/04/23 21:29:43;;;;;;;1.70;0.90;;;18.50;49.10;;;;;;6495964;22;20225;-84
2024/04/23 21:32:11;;;;;;;1.20;1.08;;;18.50;49.10;;;;;;6496878;22;20345;-83
2024/04/23 21:34:38;;;;;;;2.63;0.98;;;18.50;49.10;;;;;;6453631;22;20291;-84
2024/04/23 21:37:13;;;;;;;1.85;1.00;;;18.50;49.10;;;;;;6453341;22;20240;-84
2024/04/23 21:39:39;;;;;;;1.05;1.00;;;18.50;49.10;;;;;;6454440;22;20218;-86
2024/04/23 21:42:05;;;;;;;1.42;1.20;;;18.50;49.20;;;;;;6496026;22;20286;-87
2024/04/23 21:44:32;;;;;;;1.83;1.10;;;18.50;49.20;;;;;;6454380;22;20226;-84